sensor_id;sensor_type;location;lat;lon;timestamp;pressure;altitude;pressure_sealevel;temperature;humidity
48862;BME280;34681;49.188;-0.374;2022-10-31T00:00:51;101657.31;;;15.60;74.44
48862;BME280;34681;49.188;-0.374;2022-10-31T00:03:17;101657.41;;;15.86;73.00
48862;BME280;34681;49.188;-0.374;2022-10-31T00:05:44;101657.31;;;15.96;72.56
48862;BME280;34681;49.188;-0.374;2022-10-31T00:08:10;101658.13;;;16.06;72.13
48862;BME280;34681;49.188;-0.374;2022-10-31T00:10:44;101661.94;;;16.13;71.46
48862;BME280;34681;49.188;-0.374;2022-10-31T00:13:10;101657.00;;;16.17;71.01
48862;BME280;34681;49.188;-0.374;2022-10-31T00:15:37;101650.59;;;16.16;71.06
48862;BME280;34681;49.188;-0.374;2022-10-31T00:18:03;101648.88;;;16.15;71.01
48862;BME280;34681;49.188;-0.374;2022-10-31T00:20:30;101648.00;;;16.15;71.12
48862;BME280;34681;49.188;-0.374;2022-10-31T00:22:59;101646.13;;;16.15;71.15
48862;BME280;34681;49.188;-0.374;2022-10-31T00:25:27;101648.69;;;16.17;70.78
48862;BME280;34681;49.188;-0.374;2022-10-31T00:27:53;101644.03;;;16.17;70.88
48862;BME280;34681;49.188;-0.374;2022-10-31T00:30:18;101641.28;;;16.17;70.93
48862;BME280;34681;49.188;-0.374;2022-10-31T00:32:44;101646.41;;;16.12;71.02
48862;BME280;34681;49.188;-0.374;2022-10-31T00:35:09;101646.28;;;16.14;71.01
48862;BME280;34681;49.188;-0.374;2022-10-31T00:37:35;101647.66;;;16.18;70.59
48862;BME280;34681;49.188;-0.374;2022-10-31T00:40:00;101648.00;;;16.15;70.67
48862;BME280;34681;49.188;-0.374;2022-10-31T00:42:26;101642.50;;;16.15;70.99
48862;BME280;34681;49.188;-0.374;2022-10-31T00:44:51;101646.63;;;16.19;70.77
48862;BME280;34681;49.188;-0.374;2022-10-31T00:47:17;101641.97;;;16.19;70.35
48862;BME280;34681;49.188;-0.374;2022-10-31T00:49:42;101646.81;;;16.17;70.47
48862;BME280;34681;49.188;-0.374;2022-10-31T00:52:07;101654.22;;;16.17;70.28
48862;BME280;34681;49.188;-0.374;2022-10-31T00:54:33;101648.47;;;16.10;70.39
48862;BME280;34681;49.188;-0.374;2022-10-31T00:56:58;101638.97;;;15.87;71.10
48862;BME280;34681;49.188;-0.374;2022-10-31T00:59:23;101642.84;;;15.58;71.68
48862;BME280;34681;49.188;-0.374;2022-10-31T01:01:49;101632.81;;;15.57;72.17
48862;BME280;34681;49.188;-0.374;2022-10-31T01:04:14;101636.16;;;15.61;71.96
48862;BME280;34681;49.188;-0.374;2022-10-31T01:06:40;101635.44;;;15.77;71.41
48862;BME280;34681;49.188;-0.374;2022-10-31T01:09:05;101628.66;;;15.89;70.55
48862;BME280;34681;49.188;-0.374;2022-10-31T01:11:31;101621.47;;;15.78;71.33
48862;BME280;34681;49.188;-0.374;2022-10-31T01:13:56;101632.59;;;15.86;70.53
48862;BME280;34681;49.188;-0.374;2022-10-31T01:16:23;101627.75;;;15.88;70.36
48862;BME280;34681;49.188;-0.374;2022-10-31T01:18:50;101626.91;;;15.88;70.27
48862;BME280;34681;49.188;-0.374;2022-10-31T01:21:18;101625.19;;;15.69;71.13
48862;BME280;34681;49.188;-0.374;2022-10-31T01:23:44;101625.84;;;15.81;70.45
48862;BME280;34681;49.188;-0.374;2022-10-31T01:26:17;101623.94;;;15.81;70.50
48862;BME280;34681;49.188;-0.374;2022-10-31T01:29:04;101628.44;;;15.82;70.13
48862;BME280;34681;49.188;-0.374;2022-10-31T01:31:33;101625.75;;;15.72;70.54
48862;BME280;34681;49.188;-0.374;2022-10-31T01:33:58;101628.88;;;15.78;70.04
48862;BME280;34681;49.188;-0.374;2022-10-31T01:36:29;101630.00;;;15.67;70.74
48862;BME280;34681;49.188;-0.374;2022-10-31T01:38:57;101630.00;;;15.67;70.64
48862;BME280;34681;49.188;-0.374;2022-10-31T01:41:27;101625.53;;;15.66;70.75
48862;BME280;34681;49.188;-0.374;2022-10-31T01:43:59;101626.91;;;15.70;70.40
48862;BME280;34681;49.188;-0.374;2022-10-31T01:46:37;101622.50;;;15.59;70.88
48862;BME280;34681;49.188;-0.374;2022-10-31T01:49:09;101619.81;;;15.50;71.15
48862;BME280;34681;49.188;-0.374;2022-10-31T01:51:44;101615.41;;;15.57;71.07
48862;BME280;34681;49.188;-0.374;2022-10-31T01:54:15;101622.25;;;15.35;72.03
48862;BME280;34681;49.188;-0.374;2022-10-31T01:56:47;101607.13;;;15.39;72.53
48862;BME280;34681;49.188;-0.374;2022-10-31T01:59:16;101608.03;;;15.12;73.50
48862;BME280;34681;49.188;-0.374;2022-10-31T02:01:44;101608.63;;;15.33;73.03
48862;BME280;34681;49.188;-0.374;2022-10-31T02:04:11;101605.88;;;15.51;72.11
48862;BME280;34681;49.188;-0.374;2022-10-31T02:06:44;101600.34;;;15.33;72.23
48862;BME280;34681;49.188;-0.374;2022-10-31T02:09:12;101599.66;;;15.49;72.00
48862;BME280;34681;49.188;-0.374;2022-10-31T02:11:38;101593.97;;;15.68;70.90
48862;BME280;34681;49.188;-0.374;2022-10-31T02:14:05;101599.56;;;15.59;71.14
48862;BME280;34681;49.188;-0.374;2022-10-31T02:16:30;101589.84;;;15.55;71.39
48862;BME280;34681;49.188;-0.374;2022-10-31T02:18:56;101585.22;;;15.37;72.12
48862;BME280;34681;49.188;-0.374;2022-10-31T02:21:41;101588.28;;;15.34;72.35
48862;BME280;34681;49.188;-0.374;2022-10-31T02:37:51;101588.47;;;15.15;72.78
48862;BME280;34681;49.188;-0.374;2022-10-31T02:42:59;101583.09;;;15.31;71.95
48862;BME280;34681;49.188;-0.374;2022-10-31T02:48:15;101582.16;;;15.23;72.29
48862;BME280;34681;49.188;-0.374;2022-10-31T02:50:47;101568.75;;;15.28;71.99
48862;BME280;34681;49.188;-0.374;2022-10-31T02:53:15;101570.16;;;14.96;73.31
48862;BME280;34681;49.188;-0.374;2022-10-31T02:55:51;101562.19;;;14.75;74.18
48862;BME280;34681;49.188;-0.374;2022-10-31T02:58:21;101566.31;;;15.07;72.98
48862;BME280;34681;49.188;-0.374;2022-10-31T03:11:58;101548.75;;;14.63;74.72
48862;BME280;34681;49.188;-0.374;2022-10-31T03:15:06;101543.31;;;14.43;76.19
48862;BME280;34681;49.188;-0.374;2022-10-31T03:20:27;101548.41;;;14.38;77.59
48862;BME280;34681;49.188;-0.374;2022-10-31T03:22:55;101543.06;;;13.99;78.86
48862;BME280;34681;49.188;-0.374;2022-10-31T03:25:22;101544.84;;;14.28;78.43
48862;BME280;34681;49.188;-0.374;2022-10-31T03:27:49;101549.16;;;14.68;76.74
48862;BME280;34681;49.188;-0.374;2022-10-31T03:30:16;101539.19;;;14.84;76.05
48862;BME280;34681;49.188;-0.374;2022-10-31T03:32:48;101540.81;;;14.59;76.90
48862;BME280;34681;49.188;-0.374;2022-10-31T03:35:18;101543.72;;;14.58;77.05
48862;BME280;34681;49.188;-0.374;2022-10-31T03:37:46;101547.09;;;14.05;79.18
48862;BME280;34681;49.188;-0.374;2022-10-31T03:40:14;101542.66;;;14.31;79.01
48862;BME280;34681;49.188;-0.374;2022-10-31T03:42:43;101529.78;;;14.32;78.44
48862;BME280;34681;49.188;-0.374;2022-10-31T03:45:14;101527.72;;;13.97;80.59
48862;BME280;34681;49.188;-0.374;2022-10-31T03:47:43;101525.38;;;14.02;80.57
48862;BME280;34681;49.188;-0.374;2022-10-31T03:50:11;101522.00;;;14.18;79.82
48862;BME280;34681;49.188;-0.374;2022-10-31T03:52:53;101521.78;;;14.29;79.34
48862;BME280;34681;49.188;-0.374;2022-10-31T03:55:28;101522.25;;;13.87;81.04
48862;BME280;34681;49.188;-0.374;2022-10-31T03:58:29;101522.97;;;13.89;81.39
48862;BME280;34681;49.188;-0.374;2022-10-31T04:01:00;101518.19;;;13.91;82.31
48862;BME280;34681;49.188;-0.374;2022-10-31T04:03:29;101520.31;;;13.97;81.90
48862;BME280;34681;49.188;-0.374;2022-10-31T04:05:58;101512.78;;;14.09;80.95
48862;BME280;34681;49.188;-0.374;2022-10-31T04:08:28;101495.03;;;14.21;80.30
48862;BME280;34681;49.188;-0.374;2022-10-31T04:10:56;101501.72;;;13.72;82.56
48862;BME280;34681;49.188;-0.374;2022-10-31T04:13:28;101506.22;;;13.83;82.35
48862;BME280;34681;49.188;-0.374;2022-10-31T04:15:56;101504.47;;;13.72;82.83
48862;BME280;34681;49.188;-0.374;2022-10-31T04:18:25;101512.81;;;13.90;82.86
48862;BME280;34681;49.188;-0.374;2022-10-31T04:21:00;101509.25;;;14.17;81.67
48862;BME280;34681;49.188;-0.374;2022-10-31T04:23:27;101514.81;;;14.07;81.86
48862;BME280;34681;49.188;-0.374;2022-10-31T04:25:53;101503.00;;;14.24;81.24
48862;BME280;34681;49.188;-0.374;2022-10-31T04:28:19;101515.63;;;14.17;80.88
48862;BME280;34681;49.188;-0.374;2022-10-31T04:30:44;101505.88;;;14.23;81.32
48862;BME280;34681;49.188;-0.374;2022-10-31T04:33:09;101508.41;;;14.44;80.11
48862;BME280;34681;49.188;-0.374;2022-10-31T04:35:35;101514.94;;;14.70;79.15
48862;BME280;34681;49.188;-0.374;2022-10-31T04:38:00;101506.38;;;14.73;78.69
48862;BME280;34681;49.188;-0.374;2022-10-31T04:40:26;101499.19;;;14.80;78.27
48862;BME280;34681;49.188;-0.374;2022-10-31T04:42:51;101502.50;;;14.66;78.47
48862;BME280;34681;49.188;-0.374;2022-10-31T04:45:16;101504.25;;;14.85;77.88
48862;BME280;34681;49.188;-0.374;2022-10-31T04:47:42;101494.88;;;15.13;76.70
48862;BME280;34681;49.188;-0.374;2022-10-31T04:50:07;101487.63;;;15.12;76.52
48862;BME280;34681;49.188;-0.374;2022-10-31T04:52:39;101487.88;;;14.83;77.24
48862;BME280;34681;49.188;-0.374;2022-10-31T04:55:04;101483.94;;;14.68;77.78
48862;BME280;34681;49.188;-0.374;2022-10-31T04:57:30;101474.88;;;14.58;77.93
48862;BME280;34681;49.188;-0.374;2022-10-31T04:59:55;101479.69;;;14.92;76.86
48862;BME280;34681;49.188;-0.374;2022-10-31T05:02:21;101483.91;;;15.22;75.79
48862;BME280;34681;49.188;-0.374;2022-10-31T05:04:46;101471.66;;;14.98;75.98
48862;BME280;34681;49.188;-0.374;2022-10-31T05:07:11;101462.84;;;14.59;77.33
48862;BME280;34681;49.188;-0.374;2022-10-31T05:09:37;101466.38;;;14.14;79.50
48862;BME280;34681;49.188;-0.374;2022-10-31T05:12:02;101467.13;;;14.06;80.65
48862;BME280;34681;49.188;-0.374;2022-10-31T05:14:28;101462.03;;;13.84;81.25
48862;BME280;34681;49.188;-0.374;2022-10-31T05:16:53;101457.16;;;14.05;81.63
48862;BME280;34681;49.188;-0.374;2022-10-31T05:19:18;101453.19;;;14.18;80.37
48862;BME280;34681;49.188;-0.374;2022-10-31T05:21:44;101443.72;;;14.02;80.64
48862;BME280;34681;49.188;-0.374;2022-10-31T05:24:09;101435.25;;;14.41;79.97
48862;BME280;34681;49.188;-0.374;2022-10-31T05:26:34;101434.75;;;14.73;78.51
48862;BME280;34681;49.188;-0.374;2022-10-31T05:29:00;101434.09;;;15.15;76.51
48862;BME280;34681;49.188;-0.374;2022-10-31T05:31:25;101432.09;;;15.25;76.00
48862;BME280;34681;49.188;-0.374;2022-10-31T05:33:50;101429.69;;;14.51;77.95
48862;BME280;34681;49.188;-0.374;2022-10-31T05:36:16;101429.13;;;14.47;78.57
48862;BME280;34681;49.188;-0.374;2022-10-31T05:38:41;101422.06;;;14.17;79.84
48862;BME280;34681;49.188;-0.374;2022-10-31T05:41:06;101406.19;;;14.56;79.03
48862;BME280;34681;49.188;-0.374;2022-10-31T05:43:32;101401.38;;;14.58;78.18
48862;BME280;34681;49.188;-0.374;2022-10-31T05:45:57;101401.25;;;14.05;80.05
48862;BME280;34681;49.188;-0.374;2022-10-31T05:48:22;101392.16;;;13.77;82.02
48862;BME280;34681;49.188;-0.374;2022-10-31T05:50:48;101400.59;;;13.93;81.65
48862;BME280;34681;49.188;-0.374;2022-10-31T05:53:15;101402.88;;;13.70;82.07
48862;BME280;34681;49.188;-0.374;2022-10-31T05:55:42;101401.16;;;13.69;83.09
48862;BME280;34681;49.188;-0.374;2022-10-31T05:58:08;101400.13;;;13.70;82.77
48862;BME280;34681;49.188;-0.374;2022-10-31T06:00:33;101393.31;;;13.74;83.26
48862;BME280;34681;49.188;-0.374;2022-10-31T06:03:06;101396.75;;;13.49;83.26
48862;BME280;34681;49.188;-0.374;2022-10-31T06:05:32;101402.75;;;12.96;85.93
48862;BME280;34681;49.188;-0.374;2022-10-31T06:07:58;101397.22;;;13.15;86.96
48862;BME280;34681;49.188;-0.374;2022-10-31T06:10:24;101389.88;;;13.26;85.26
48862;BME280;34681;49.188;-0.374;2022-10-31T06:12:50;101400.88;;;13.16;86.15
48862;BME280;34681;49.188;-0.374;2022-10-31T06:15:16;101388.41;;;13.31;85.72
48862;BME280;34681;49.188;-0.374;2022-10-31T06:17:41;101387.50;;;13.77;84.69
48862;BME280;34681;49.188;-0.374;2022-10-31T06:20:07;101384.84;;;14.13;82.76
48862;BME280;34681;49.188;-0.374;2022-10-31T06:22:33;101384.94;;;14.67;81.13
48862;BME280;34681;49.188;-0.374;2022-10-31T06:24:58;101386.25;;;14.80;80.05
48862;BME280;34681;49.188;-0.374;2022-10-31T06:27:24;101381.94;;;14.78;79.81
48862;BME280;34681;49.188;-0.374;2022-10-31T06:29:49;101378.81;;;15.16;78.53
48862;BME280;34681;49.188;-0.374;2022-10-31T06:32:15;101377.31;;;15.30;77.54
48862;BME280;34681;49.188;-0.374;2022-10-31T06:34:41;101380.09;;;15.30;77.89
48862;BME280;34681;49.188;-0.374;2022-10-31T06:37:07;101381.66;;;15.33;78.07
48862;BME280;34681;49.188;-0.374;2022-10-31T06:39:33;101372.34;;;15.60;76.87
48862;BME280;34681;49.188;-0.374;2022-10-31T06:41:59;101370.91;;;15.48;76.41
48862;BME280;34681;49.188;-0.374;2022-10-31T06:44:24;101378.41;;;15.37;76.83
48862;BME280;34681;49.188;-0.374;2022-10-31T06:46:50;101379.78;;;15.33;77.32
48862;BME280;34681;49.188;-0.374;2022-10-31T06:49:15;101372.03;;;15.37;77.04
48862;BME280;34681;49.188;-0.374;2022-10-31T06:51:41;101365.34;;;15.39;76.30
48862;BME280;34681;49.188;-0.374;2022-10-31T06:54:06;101349.31;;;15.43;76.52
48862;BME280;34681;49.188;-0.374;2022-10-31T06:56:32;101364.50;;;15.65;76.24
48862;BME280;34681;49.188;-0.374;2022-10-31T06:58:57;101356.03;;;15.66;75.79
48862;BME280;34681;49.188;-0.374;2022-10-31T07:01:22;101358.72;;;15.58;76.32
48862;BME280;34681;49.188;-0.374;2022-10-31T07:03:48;101353.63;;;15.45;76.68
48862;BME280;34681;49.188;-0.374;2022-10-31T07:06:13;101345.19;;;15.47;75.98
48862;BME280;34681;49.188;-0.374;2022-10-31T07:08:39;101349.56;;;15.24;77.38
48862;BME280;34681;49.188;-0.374;2022-10-31T07:11:05;101349.53;;;15.50;76.76
48862;BME280;34681;49.188;-0.374;2022-10-31T07:13:30;101333.56;;;15.27;77.28
48862;BME280;34681;49.188;-0.374;2022-10-31T07:16:00;101341.59;;;14.95;77.83
48862;BME280;34681;49.188;-0.374;2022-10-31T07:18:26;101328.69;;;14.51;79.32
48862;BME280;34681;49.188;-0.374;2022-10-31T07:20:52;101317.09;;;14.66;80.35
48862;BME280;34681;49.188;-0.374;2022-10-31T07:23:17;101324.75;;;14.98;79.08
48862;BME280;34681;49.188;-0.374;2022-10-31T07:25:43;101318.50;;;14.70;79.85
48862;BME280;34681;49.188;-0.374;2022-10-31T07:28:09;101313.63;;;14.81;79.68
48862;BME280;34681;49.188;-0.374;2022-10-31T07:30:34;101317.81;;;14.32;81.81
48862;BME280;34681;49.188;-0.374;2022-10-31T07:33:00;101331.41;;;13.88;83.68
48862;BME280;34681;49.188;-0.374;2022-10-31T07:35:27;101324.88;;;13.89;85.18
48862;BME280;34681;49.188;-0.374;2022-10-31T07:37:53;101325.41;;;14.02;85.04
48862;BME280;34681;49.188;-0.374;2022-10-31T07:40:20;101318.06;;;14.56;83.21
48862;BME280;34681;49.188;-0.374;2022-10-31T07:42:49;101314.34;;;14.66;82.46
48862;BME280;34681;49.188;-0.374;2022-10-31T07:45:20;101306.28;;;14.72;81.55
48862;BME280;34681;49.188;-0.374;2022-10-31T07:47:50;101297.56;;;14.77;81.41
48862;BME280;34681;49.188;-0.374;2022-10-31T07:50:20;101297.50;;;14.95;81.63
48862;BME280;34681;49.188;-0.374;2022-10-31T07:52:46;101297.38;;;15.30;79.76
48862;BME280;34681;49.188;-0.374;2022-10-31T07:55:12;101291.59;;;15.07;80.45
48862;BME280;34681;49.188;-0.374;2022-10-31T07:57:38;101292.38;;;14.56;80.90
48862;BME280;34681;49.188;-0.374;2022-10-31T08:00:05;101303.72;;;13.99;84.28
48862;BME280;34681;49.188;-0.374;2022-10-31T08:02:30;101301.59;;;14.29;84.73
48862;BME280;34681;49.188;-0.374;2022-10-31T08:04:56;101295.38;;;14.63;82.90
48862;BME280;34681;49.188;-0.374;2022-10-31T08:07:21;101289.28;;;14.51;82.92
48862;BME280;34681;49.188;-0.374;2022-10-31T08:09:47;101287.91;;;14.55;83.28
48862;BME280;34681;49.188;-0.374;2022-10-31T08:12:12;101270.75;;;14.43;83.23
48862;BME280;34681;49.188;-0.374;2022-10-31T08:14:37;101265.50;;;14.32;83.81
48862;BME280;34681;49.188;-0.374;2022-10-31T08:17:03;101264.16;;;14.36;84.73
48862;BME280;34681;49.188;-0.374;2022-10-31T08:19:28;101257.47;;;14.56;82.93
48862;BME280;34681;49.188;-0.374;2022-10-31T08:21:53;101257.56;;;14.91;82.14
48862;BME280;34681;49.188;-0.374;2022-10-31T08:26:59;101251.56;;;15.37;81.10
48862;BME280;34681;49.188;-0.374;2022-10-31T08:29:24;101248.44;;;15.24;80.61
48862;BME280;34681;49.188;-0.374;2022-10-31T08:31:50;101243.00;;;15.40;79.95
48862;BME280;34681;49.188;-0.374;2022-10-31T08:34:15;101238.63;;;15.72;79.02
48862;BME280;34681;49.188;-0.374;2022-10-31T08:36:41;101234.78;;;15.57;78.86
48862;BME280;34681;49.188;-0.374;2022-10-31T08:39:10;101241.59;;;15.02;80.68
48862;BME280;34681;49.188;-0.374;2022-10-31T08:41:35;101237.63;;;15.31;80.78
48862;BME280;34681;49.188;-0.374;2022-10-31T08:44:01;101229.84;;;15.68;79.54
48862;BME280;34681;49.188;-0.374;2022-10-31T08:46:29;101232.59;;;15.68;79.08
48862;BME280;34681;49.188;-0.374;2022-10-31T08:48:54;101228.34;;;15.40;79.58
48862;BME280;34681;49.188;-0.374;2022-10-31T08:51:19;101229.66;;;15.28;80.34
48862;BME280;34681;49.188;-0.374;2022-10-31T08:53:45;101226.47;;;15.06;80.48
48862;BME280;34681;49.188;-0.374;2022-10-31T08:56:10;101216.41;;;14.97;80.54
48862;BME280;34681;49.188;-0.374;2022-10-31T08:58:35;101225.09;;;15.10;80.77
48862;BME280;34681;49.188;-0.374;2022-10-31T09:01:01;101217.66;;;15.03;80.87
48862;BME280;34681;49.188;-0.374;2022-10-31T09:03:29;101204.84;;;15.28;80.25
48862;BME280;34681;49.188;-0.374;2022-10-31T09:05:57;101199.69;;;15.75;78.93
48862;BME280;34681;49.188;-0.374;2022-10-31T09:08:23;101194.16;;;15.75;78.64
48862;BME280;34681;49.188;-0.374;2022-10-31T09:10:49;101185.88;;;15.67;77.79
48862;BME280;34681;49.188;-0.374;2022-10-31T09:13:17;101173.84;;;15.84;77.42
48862;BME280;34681;49.188;-0.374;2022-10-31T09:15:43;101171.44;;;16.06;76.86
48862;BME280;34681;49.188;-0.374;2022-10-31T09:18:09;101178.31;;;16.42;76.52
48862;BME280;34681;49.188;-0.374;2022-10-31T09:20:36;101177.97;;;16.45;75.68
48862;BME280;34681;49.188;-0.374;2022-10-31T09:23:06;101176.16;;;16.93;74.30
48862;BME280;34681;49.188;-0.374;2022-10-31T09:25:33;101167.03;;;16.84;73.65
48862;BME280;34681;49.188;-0.374;2022-10-31T09:28:00;101164.47;;;17.53;72.26
48862;BME280;34681;49.188;-0.374;2022-10-31T09:30:28;101164.22;;;17.40;71.37
48862;BME280;34681;49.188;-0.374;2022-10-31T09:33:00;101153.41;;;16.83;71.66
48862;BME280;34681;49.188;-0.374;2022-10-31T09:35:26;101137.72;;;16.59;72.78
48862;BME280;34681;49.188;-0.374;2022-10-31T09:38:16;101141.88;;;17.10;72.28
48862;BME280;34681;49.188;-0.374;2022-10-31T09:49:48;101097.56;;;16.32;74.24
48862;BME280;34681;49.188;-0.374;2022-10-31T09:52:21;101080.50;;;16.20;74.01
48862;BME280;34681;49.188;-0.374;2022-10-31T09:54:54;101068.91;;;16.33;74.71
48862;BME280;34681;49.188;-0.374;2022-10-31T09:57:31;101073.88;;;16.46;73.16
48862;BME280;34681;49.188;-0.374;2022-10-31T09:59:58;101073.88;;;16.38;74.20
48862;BME280;34681;49.188;-0.374;2022-10-31T10:04:59;101083.56;;;16.97;72.36
48862;BME280;34681;49.188;-0.374;2022-10-31T10:10:18;101066.19;;;17.11;71.63
48862;BME280;34681;49.188;-0.374;2022-10-31T10:26:19;100998.88;;;17.50;70.91
48862;BME280;34681;49.188;-0.374;2022-10-31T10:28:48;100997.38;;;17.62;70.03
48862;BME280;34681;49.188;-0.374;2022-10-31T10:31:16;100994.00;;;17.52;70.00
48862;BME280;34681;49.188;-0.374;2022-10-31T10:36:52;100990.13;;;18.43;67.61
48862;BME280;34681;49.188;-0.374;2022-10-31T10:39:35;101000.31;;;19.23;65.72
48862;BME280;34681;49.188;-0.374;2022-10-31T10:42:10;100992.28;;;18.92;65.22
48862;BME280;34681;49.188;-0.374;2022-10-31T10:44:56;100985.94;;;18.47;66.46
48862;BME280;34681;49.188;-0.374;2022-10-31T10:47:42;100984.38;;;18.60;66.42
48862;BME280;34681;49.188;-0.374;2022-10-31T10:50:17;100982.78;;;18.65;66.06
48862;BME280;34681;49.188;-0.374;2022-10-31T10:55:42;100970.72;;;19.09;64.65
48862;BME280;34681;49.188;-0.374;2022-10-31T10:58:11;100965.81;;;19.11;64.59
48862;BME280;34681;49.188;-0.374;2022-10-31T11:00:45;100956.97;;;19.01;65.07
48862;BME280;34681;49.188;-0.374;2022-10-31T11:03:16;100960.81;;;18.49;66.14
48862;BME280;34681;49.188;-0.374;2022-10-31T11:05:51;100969.09;;;18.64;66.75
48862;BME280;34681;49.188;-0.374;2022-10-31T11:08:28;100958.53;;;18.38;66.85
48862;BME280;34681;49.188;-0.374;2022-10-31T11:11:07;100941.31;;;18.57;67.00
48862;BME280;34681;49.188;-0.374;2022-10-31T11:13:34;100941.03;;;18.67;66.84
48862;BME280;34681;49.188;-0.374;2022-10-31T11:16:10;100935.47;;;18.52;67.35
48862;BME280;34681;49.188;-0.374;2022-10-31T11:18:46;100927.75;;;18.47;68.40
48862;BME280;34681;49.188;-0.374;2022-10-31T11:21:25;100921.22;;;18.70;67.65
48862;BME280;34681;49.188;-0.374;2022-10-31T11:24:22;100921.28;;;18.40;68.15
48862;BME280;34681;49.188;-0.374;2022-10-31T11:26:50;100916.56;;;18.70;68.10
48862;BME280;34681;49.188;-0.374;2022-10-31T11:29:20;100909.97;;;18.71;67.91
48862;BME280;34681;49.188;-0.374;2022-10-31T11:31:46;100899.75;;;18.57;68.13
48862;BME280;34681;49.188;-0.374;2022-10-31T11:36:48;100883.97;;;19.15;67.07
48862;BME280;34681;49.188;-0.374;2022-10-31T11:39:17;100886.31;;;19.40;67.35
48862;BME280;34681;49.188;-0.374;2022-10-31T11:41:45;100877.09;;;18.90;67.87
48862;BME280;34681;49.188;-0.374;2022-10-31T11:44:26;100877.00;;;19.26;67.29
48862;BME280;34681;49.188;-0.374;2022-10-31T11:46:55;100865.09;;;19.04;68.09
48862;BME280;34681;49.188;-0.374;2022-10-31T11:49:30;100861.56;;;19.17;68.12
48862;BME280;34681;49.188;-0.374;2022-10-31T11:51:59;100844.94;;;19.45;67.39
48862;BME280;34681;49.188;-0.374;2022-10-31T11:54:32;100832.88;;;19.31;68.00
48862;BME280;34681;49.188;-0.374;2022-10-31T11:56:59;100812.25;;;19.40;67.67
48862;BME280;34681;49.188;-0.374;2022-10-31T11:59:27;100810.47;;;19.60;67.31
48862;BME280;34681;49.188;-0.374;2022-10-31T12:01:55;100805.53;;;19.90;66.53
48862;BME280;34681;49.188;-0.374;2022-10-31T12:04:36;100801.47;;;19.93;66.48
48862;BME280;34681;49.188;-0.374;2022-10-31T12:07:02;100797.41;;;19.89;66.65
48862;BME280;34681;49.188;-0.374;2022-10-31T12:09:29;100793.78;;;19.88;66.31
48862;BME280;34681;49.188;-0.374;2022-10-31T12:12:15;100804.47;;;19.91;66.14
48862;BME280;34681;49.188;-0.374;2022-10-31T12:21:29;100769.13;;;20.27;65.27
48862;BME280;34681;49.188;-0.374;2022-10-31T12:26:28;100739.41;;;20.14;65.74
48862;BME280;34681;49.188;-0.374;2022-10-31T12:37:52;100720.91;;;19.39;68.43
48862;BME280;34681;49.188;-0.374;2022-10-31T12:45:57;100703.69;;;19.15;68.72
48862;BME280;34681;49.188;-0.374;2022-10-31T12:57:01;100678.09;;;18.78;70.40
48862;BME280;34681;49.188;-0.374;2022-10-31T12:59:35;100661.38;;;19.00;69.82
48862;BME280;34681;49.188;-0.374;2022-10-31T13:02:25;100656.03;;;18.98;69.79
48862;BME280;34681;49.188;-0.374;2022-10-31T13:05:00;100645.69;;;18.86;70.77
48862;BME280;34681;49.188;-0.374;2022-10-31T13:07:40;100647.59;;;19.13;69.71
48862;BME280;34681;49.188;-0.374;2022-10-31T13:10:15;100639.50;;;19.18;69.79
48862;BME280;34681;49.188;-0.374;2022-10-31T13:12:43;100627.84;;;19.36;69.08
48862;BME280;34681;49.188;-0.374;2022-10-31T13:15:17;100617.56;;;19.71;68.25
48862;BME280;34681;49.188;-0.374;2022-10-31T13:17:46;100606.50;;;19.30;69.46
48862;BME280;34681;49.188;-0.374;2022-10-31T13:20:24;100600.31;;;19.34;69.35
48862;BME280;34681;49.188;-0.374;2022-10-31T13:25:49;100588.22;;;19.55;69.07
48862;BME280;34681;49.188;-0.374;2022-10-31T13:28:27;100581.38;;;19.51;69.38
48862;BME280;34681;49.188;-0.374;2022-10-31T13:30:54;100581.13;;;19.40;70.01
48862;BME280;34681;49.188;-0.374;2022-10-31T13:34:06;100579.88;;;19.49;70.27
48862;BME280;34681;49.188;-0.374;2022-10-31T13:44:27;100574.91;;;20.12;67.94
48862;BME280;34681;49.188;-0.374;2022-10-31T13:46:57;100560.97;;;19.92;69.08
48862;BME280;34681;49.188;-0.374;2022-10-31T13:54:46;100556.31;;;19.86;69.17
48862;BME280;34681;49.188;-0.374;2022-10-31T13:59:57;100554.78;;;20.10;69.34
48862;BME280;34681;49.188;-0.374;2022-10-31T14:02:32;100549.25;;;20.23;68.75
48862;BME280;34681;49.188;-0.374;2022-10-31T14:05:04;100548.19;;;20.11;69.39
48862;BME280;34681;49.188;-0.374;2022-10-31T14:07:31;100542.84;;;20.09;69.03
48862;BME280;34681;49.188;-0.374;2022-10-31T14:10:20;100543.06;;;20.08;69.28
48862;BME280;34681;49.188;-0.374;2022-10-31T14:12:47;100542.41;;;20.06;69.00
48862;BME280;34681;49.188;-0.374;2022-10-31T14:18:07;100539.88;;;20.04;68.88
48862;BME280;34681;49.188;-0.374;2022-10-31T14:20:43;100532.59;;;20.16;68.83
48862;BME280;34681;49.188;-0.374;2022-10-31T14:25:49;100538.13;;;20.16;68.89
48862;BME280;34681;49.188;-0.374;2022-10-31T14:28:33;100520.44;;;20.11;69.32
48862;BME280;34681;49.188;-0.374;2022-10-31T14:30:59;100532.38;;;20.18;68.99
48862;BME280;34681;49.188;-0.374;2022-10-31T14:33:27;100513.16;;;20.03;69.28
48862;BME280;34681;49.188;-0.374;2022-10-31T14:36:18;100518.28;;;20.00;69.32
48862;BME280;34681;49.188;-0.374;2022-10-31T14:42:27;100516.78;;;19.90;69.69
48862;BME280;34681;49.188;-0.374;2022-10-31T14:45:17;100511.22;;;19.77;69.99
48862;BME280;34681;49.188;-0.374;2022-10-31T14:48:23;100507.81;;;19.88;69.68
48862;BME280;34681;49.188;-0.374;2022-10-31T14:50:51;100506.53;;;19.91;69.85
48862;BME280;34681;49.188;-0.374;2022-10-31T14:53:22;100496.72;;;19.88;69.65
48862;BME280;34681;49.188;-0.374;2022-10-31T14:55:51;100498.41;;;19.89;69.72
48862;BME280;34681;49.188;-0.374;2022-10-31T14:58:21;100492.66;;;19.78;70.32
48862;BME280;34681;49.188;-0.374;2022-10-31T15:00:48;100496.91;;;19.60;70.57
48862;BME280;34681;49.188;-0.374;2022-10-31T15:03:15;100485.56;;;19.55;70.57